sensor_id;sensor_type;location;lat;lon;timestamp;P1;durP1;ratioP1;P2;durP2;ratioP2
9384;SDS011;4732;49.340;10.886;2024-03-02T04:01:40;20.80;;;14.87;;
9384;SDS011;4732;49.340;10.886;2024-03-02T04:04:05;22.13;;;15.70;;
9384;SDS011;4732;49.340;10.886;2024-03-02T04:06:31;23.17;;;16.77;;
9384;SDS011;4732;49.340;10.886;2024-03-02T04:08:58;22.17;;;15.47;;
9384;SDS011;4732;49.340;10.886;2024-03-02T04:11:28;24.20;;;16.10;;
9384;SDS011;4732;49.340;10.886;2024-03-02T04:13:56;22.03;;;15.10;;
9384;SDS011;4732;49.340;10.886;2024-03-02T04:16:22;21.07;;;14.90;;
9384;SDS011;4732;49.340;10.886;2024-03-02T04:18:47;21.13;;;15.63;;
9384;SDS011;4732;49.340;10.886;2024-03-02T04:21:13;18.60;;;13.90;;
9384;SDS011;4732;49.340;10.886;2024-03-02T04:23:39;19.70;;;14.43;;
9384;SDS011;4732;49.340;10.886;2024-03-02T04:26:04;18.13;;;13.07;;
9384;SDS011;4732;49.340;10.886;2024-03-02T04:28:30;19.20;;;13.37;;
9384;SDS011;4732;49.340;10.886;2024-03-02T04:30:55;17.90;;;13.67;;
9384;SDS011;4732;49.340;10.886;2024-03-02T04:33:21;16.90;;;13.17;;
9384;SDS011;4732;49.340;10.886;2024-03-02T04:35:46;18.30;;;12.93;;
9384;SDS011;4732;49.340;10.886;2024-03-02T04:38:12;19.83;;;13.93;;
9384;SDS011;4732;49.340;10.886;2024-03-02T04:40:37;17.27;;;13.27;;
9384;SDS011;4732;49.340;10.886;2024-03-02T04:43:03;19.13;;;12.70;;
9384;SDS011;4732;49.340;10.886;2024-03-02T04:45:28;19.33;;;14.50;;
9384;SDS011;4732;49.340;10.886;2024-03-02T04:47:54;23.17;;;15.93;;
9384;SDS011;4732;49.340;10.886;2024-03-02T04:50:20;20.50;;;15.20;;
9384;SDS011;4732;49.340;10.886;2024-03-02T04:52:45;19.87;;;14.10;;
9384;SDS011;4732;49.340;10.886;2024-03-02T04:55:11;19.87;;;13.97;;
9384;SDS011;4732;49.340;10.886;2024-03-02T04:58:14;20.43;;;13.23;;
9384;SDS011;4732;49.340;10.886;2024-03-02T05:00:40;19.57;;;13.50;;
9384;SDS011;4732;49.340;10.886;2024-03-02T05:03:07;18.87;;;13.60;;
9384;SDS011;4732;49.340;10.886;2024-03-02T05:05:33;19.60;;;14.20;;
9384;SDS011;4732;49.340;10.886;2024-03-02T05:08:00;20.97;;;13.87;;
9384;SDS011;4732;49.340;10.886;2024-03-02T05:10:25;20.63;;;14.23;;
9384;SDS011;4732;49.340;10.886;2024-03-02T05:12:51;21.33;;;14.53;;
9384;SDS011;4732;49.340;10.886;2024-03-02T05:15:22;22.10;;;14.43;;
9384;SDS011;4732;49.340;10.886;2024-03-02T05:17:47;24.70;;;15.27;;
9384;SDS011;4732;49.340;10.886;2024-03-02T05:20:13;19.43;;;13.97;;
9384;SDS011;4732;49.340;10.886;2024-03-02T05:22:38;21.03;;;13.97;;
9384;SDS011;4732;49.340;10.886;2024-03-02T05:25:06;24.33;;;15.07;;
9384;SDS011;4732;49.340;10.886;2024-03-02T05:27:32;24.10;;;15.13;;
9384;SDS011;4732;49.340;10.886;2024-03-02T05:29:58;25.17;;;15.33;;
9384;SDS011;4732;49.340;10.886;2024-03-02T05:32:24;21.43;;;14.63;;
9384;SDS011;4732;49.340;10.886;2024-03-02T05:34:49;20.77;;;14.40;;
9384;SDS011;4732;49.340;10.886;2024-03-02T05:37:15;17.83;;;12.77;;
9384;SDS011;4732;49.340;10.886;2024-03-02T05:39:41;19.33;;;13.97;;
9384;SDS011;4732;49.340;10.886;2024-03-02T05:42:08;19.87;;;13.80;;
9384;SDS011;4732;49.340;10.886;2024-03-02T05:44:35;19.87;;;14.07;;
9384;SDS011;4732;49.340;10.886;2024-03-02T05:47:03;22.43;;;15.17;;
9384;SDS011;4732;49.340;10.886;2024-03-02T05:49:29;22.53;;;16.13;;
9384;SDS011;4732;49.340;10.886;2024-03-02T05:51:55;24.07;;;16.17;;
9384;SDS011;4732;49.340;10.886;2024-03-02T05:54:20;25.80;;;17.07;;
9384;SDS011;4732;49.340;10.886;2024-03-02T05:56:46;22.67;;;15.40;;
9384;SDS011;4732;49.340;10.886;2024-03-02T05:59:11;22.17;;;15.03;;
9384;SDS011;4732;49.340;10.886;2024-03-02T06:04:11;21.23;;;14.07;;
9384;SDS011;4732;49.340;10.886;2024-03-02T06:06:40;17.23;;;13.37;;
9384;SDS011;4732;49.340;10.886;2024-03-02T06:09:06;22.43;;;14.70;;
9384;SDS011;4732;49.340;10.886;2024-03-02T06:11:41;22.60;;;14.53;;
9384;SDS011;4732;49.340;10.886;2024-03-02T06:14:07;20.90;;;14.83;;
9384;SDS011;4732;49.340;10.886;2024-03-02T06:16:33;21.40;;;15.27;;
9384;SDS011;4732;49.340;10.886;2024-03-02T06:18:59;19.53;;;13.87;;
9384;SDS011;4732;49.340;10.886;2024-03-02T06:21:25;20.40;;;14.57;;
9384;SDS011;4732;49.340;10.886;2024-03-02T06:23:52;20.80;;;15.50;;
9384;SDS011;4732;49.340;10.886;2024-03-02T06:26:18;20.57;;;14.47;;
9384;SDS011;4732;49.340;10.886;2024-03-02T06:28:45;23.40;;;15.63;;
9384;SDS011;4732;49.340;10.886;2024-03-02T06:31:11;22.23;;;15.43;;
9384;SDS011;4732;49.340;10.886;2024-03-02T06:33:37;21.60;;;16.13;;
9384;SDS011;4732;49.340;10.886;2024-03-02T06:36:02;27.10;;;18.63;;
9384;SDS011;4732;49.340;10.886;2024-03-02T06:38:28;21.13;;;15.50;;
9384;SDS011;4732;49.340;10.886;2024-03-02T06:40:57;21.67;;;16.43;;
9384;SDS011;4732;49.340;10.886;2024-03-02T06:43:22;21.43;;;15.33;;
9384;SDS011;4732;49.340;10.886;2024-03-02T06:45:49;21.93;;;15.20;;
9384;SDS011;4732;49.340;10.886;2024-03-02T06:48:15;23.43;;;16.30;;
9384;SDS011;4732;49.340;10.886;2024-03-02T06:50:45;24.07;;;16.97;;
9384;SDS011;4732;49.340;10.886;2024-03-02T06:53:13;24.63;;;16.23;;
9384;SDS011;4732;49.340;10.886;2024-03-02T06:55:42;22.27;;;16.70;;
9384;SDS011;4732;49.340;10.886;2024-03-02T06:58:07;22.63;;;16.37;;
9384;SDS011;4732;49.340;10.886;2024-03-02T07:00:33;24.47;;;15.60;;
9384;SDS011;4732;49.340;10.886;2024-03-02T07:02:58;24.10;;;16.40;;
9384;SDS011;4732;49.340;10.886;2024-03-02T07:05:24;23.03;;;15.60;;
9384;SDS011;4732;49.340;10.886;2024-03-02T07:07:50;20.20;;;15.40;;
9384;SDS011;4732;49.340;10.886;2024-03-02T07:10:15;20.80;;;15.50;;
9384;SDS011;4732;49.340;10.886;2024-03-02T07:12:41;20.67;;;15.13;;
9384;SDS011;4732;49.340;10.886;2024-03-02T07:15:07;23.87;;;16.03;;
9384;SDS011;4732;49.340;10.886;2024-03-02T07:17:43;20.87;;;15.97;;
9384;SDS011;4732;49.340;10.886;2024-03-02T07:20:09;23.90;;;18.00;;
9384;SDS011;4732;49.340;10.886;2024-03-02T07:22:37;21.47;;;15.70;;
9384;SDS011;4732;49.340;10.886;2024-03-02T07:25:02;24.07;;;16.80;;
9384;SDS011;4732;49.340;10.886;2024-03-02T07:27:28;21.43;;;15.50;;
9384;SDS011;4732;49.340;10.886;2024-03-02T07:29:56;22.30;;;15.93;;
9384;SDS011;4732;49.340;10.886;2024-03-02T07:32:21;23.33;;;15.67;;
9384;SDS011;4732;49.340;10.886;2024-03-02T07:34:47;21.67;;;15.70;;
9384;SDS011;4732;49.340;10.886;2024-03-02T07:37:13;23.27;;;17.00;;
9384;SDS011;4732;49.340;10.886;2024-03-02T07:39:38;25.67;;;17.83;;
9384;SDS011;4732;49.340;10.886;2024-03-02T07:42:04;22.27;;;16.83;;
9384;SDS011;4732;49.340;10.886;2024-03-02T07:44:31;25.00;;;18.07;;
9384;SDS011;4732;49.340;10.886;2024-03-02T07:46:56;26.83;;;17.13;;
9384;SDS011;4732;49.340;10.886;2024-03-02T07:49:22;25.27;;;16.83;;
9384;SDS011;4732;49.340;10.886;2024-03-02T07:51:47;22.50;;;15.53;;
9384;SDS011;4732;49.340;10.886;2024-03-02T07:54:13;25.50;;;17.40;;
9384;SDS011;4732;49.340;10.886;2024-03-02T07:56:39;21.07;;;15.37;;
9384;SDS011;4732;49.340;10.886;2024-03-02T07:59:04;21.30;;;16.13;;
9384;SDS011;4732;49.340;10.886;2024-03-02T08:01:32;19.27;;;14.57;;
9384;SDS011;4732;49.340;10.886;2024-03-02T08:03:58;24.30;;;15.30;;
9384;SDS011;4732;49.340;10.886;2024-03-02T08:06:25;20.73;;;15.33;;
9384;SDS011;4732;49.340;10.886;2024-03-02T08:08:55;17.73;;;14.10;;
9384;SDS011;4732;49.340;10.886;2024-03-02T08:11:21;19.80;;;14.70;;
9384;SDS011;4732;49.340;10.886;2024-03-02T08:13:48;17.03;;;12.93;;
9384;SDS011;4732;49.340;10.886;2024-03-02T08:16:16;18.00;;;14.00;;
9384;SDS011;4732;49.340;10.886;2024-03-02T08:18:46;17.63;;;13.63;;
9384;SDS011;4732;49.340;10.886;2024-03-02T08:21:13;15.47;;;11.83;;
9384;SDS011;4732;49.340;10.886;2024-03-02T08:23:40;14.50;;;11.53;;
9384;SDS011;4732;49.340;10.886;2024-03-02T08:26:07;13.73;;;10.83;;
9384;SDS011;4732;49.340;10.886;2024-03-02T08:28:33;13.83;;;11.23;;
9384;SDS011;4732;49.340;10.886;2024-03-02T08:30:59;14.03;;;11.10;;
9384;SDS011;4732;49.340;10.886;2024-03-02T08:33:24;12.73;;;11.33;;
9384;SDS011;4732;49.340;10.886;2024-03-02T08:35:50;12.90;;;10.67;;
9384;SDS011;4732;49.340;10.886;2024-03-02T08:38:15;14.00;;;10.90;;
9384;SDS011;4732;49.340;10.886;2024-03-02T08:40:41;10.47;;;8.93;;
9384;SDS011;4732;49.340;10.886;2024-03-02T08:43:07;12.27;;;9.50;;
9384;SDS011;4732;49.340;10.886;2024-03-02T08:45:33;9.80;;;8.63;;
9384;SDS011;4732;49.340;10.886;2024-03-02T08:54:29;10.27;;;8.40;;
9384;SDS011;4732;49.340;10.886;2024-03-02T08:56:54;8.73;;;7.83;;
9384;SDS011;4732;49.340;10.886;2024-03-02T08:59:20;9.97;;;8.63;;
9384;SDS011;4732;49.340;10.886;2024-03-02T09:01:46;10.93;;;8.73;;
9384;SDS011;4732;49.340;10.886;2024-03-02T09:04:11;10.37;;;8.57;;
9384;SDS011;4732;49.340;10.886;2024-03-02T09:06:37;11.57;;;9.00;;
9384;SDS011;4732;49.340;10.886;2024-03-02T09:09:03;9.87;;;7.83;;
9384;SDS011;4732;49.340;10.886;2024-03-02T09:11:29;9.18;;;7.68;;
9384;SDS011;4732;49.340;10.886;2024-03-02T09:13:55;10.23;;;8.37;;
9384;SDS011;4732;49.340;10.886;2024-03-02T09:16:23;11.57;;;9.57;;
9384;SDS011;4732;49.340;10.886;2024-03-02T09:18:52;9.45;;;7.70;;
9384;SDS011;4732;49.340;10.886;2024-03-02T09:21:38;9.23;;;7.95;;
9384;SDS011;4732;49.340;10.886;2024-03-02T09:24:09;9.57;;;8.03;;
9384;SDS011;4732;49.340;10.886;2024-03-02T09:26:40;11.85;;;9.55;;
9384;SDS011;4732;49.340;10.886;2024-03-02T09:29:06;11.10;;;9.13;;
9384;SDS011;4732;49.340;10.886;2024-03-02T09:31:41;13.60;;;9.50;;
9384;SDS011;4732;49.340;10.886;2024-03-02T09:34:20;14.25;;;9.27;;
9384;SDS011;4732;49.340;10.886;2024-03-02T09:36:47;13.60;;;10.82;;
9384;SDS011;4732;49.340;10.886;2024-03-02T09:39:12;11.48;;;10.10;;
9384;SDS011;4732;49.340;10.886;2024-03-02T09:41:39;11.07;;;9.60;;
9384;SDS011;4732;49.340;10.886;2024-03-02T09:44:05;12.32;;;9.90;;
9384;SDS011;4732;49.340;10.886;2024-03-02T09:46:31;10.02;;;8.68;;
9384;SDS011;4732;49.340;10.886;2024-03-02T09:48:56;10.50;;;8.45;;
9384;SDS011;4732;49.340;10.886;2024-03-02T09:51:22;10.85;;;8.98;;
9384;SDS011;4732;49.340;10.886;2024-03-02T09:53:48;12.02;;;10.05;;
9384;SDS011;4732;49.340;10.886;2024-03-02T09:56:14;11.13;;;9.27;;
9384;SDS011;4732;49.340;10.886;2024-03-02T09:58:46;11.25;;;8.80;;
9384;SDS011;4732;49.340;10.886;2024-03-02T10:01:12;10.88;;;9.18;;
9384;SDS011;4732;49.340;10.886;2024-03-02T10:03:37;11.63;;;9.32;;
9384;SDS011;4732;49.340;10.886;2024-03-02T10:06:22;11.68;;;8.85;;
9384;SDS011;4732;49.340;10.886;2024-03-02T10:08:49;9.68;;;8.45;;
9384;SDS011;4732;49.340;10.886;2024-03-02T10:11:25;10.90;;;8.60;;
9384;SDS011;4732;49.340;10.886;2024-03-02T10:14:03;10.07;;;8.40;;
9384;SDS011;4732;49.340;10.886;2024-03-02T10:16:33;9.98;;;7.88;;
9384;SDS011;4732;49.340;10.886;2024-03-02T10:19:14;10.95;;;8.80;;
9384;SDS011;4732;49.340;10.886;2024-03-02T10:21:40;10.18;;;7.97;;
9384;SDS011;4732;49.340;10.886;2024-03-02T10:24:07;10.80;;;8.23;;
9384;SDS011;4732;49.340;10.886;2024-03-02T10:26:32;10.98;;;8.45;;
9384;SDS011;4732;49.340;10.886;2024-03-02T10:28:58;12.18;;;8.77;;
9384;SDS011;4732;49.340;10.886;2024-03-02T10:31:24;10.07;;;8.27;;
9384;SDS011;4732;49.340;10.886;2024-03-02T10:33:53;11.68;;;9.18;;
9384;SDS011;4732;49.340;10.886;2024-03-02T10:36:20;10.55;;;8.70;;
9384;SDS011;4732;49.340;10.886;2024-03-02T10:38:46;10.55;;;8.70;;
9384;SDS011;4732;49.340;10.886;2024-03-02T10:41:16;10.60;;;8.90;;
9384;SDS011;4732;49.340;10.886;2024-03-02T10:43:43;11.07;;;9.40;;
9384;SDS011;4732;49.340;10.886;2024-03-02T10:46:09;11.20;;;9.38;;
9384;SDS011;4732;49.340;10.886;2024-03-02T10:48:36;13.18;;;9.07;;
9384;SDS011;4732;49.340;10.886;2024-03-02T10:51:04;11.75;;;9.13;;
9384;SDS011;4732;49.340;10.886;2024-03-02T10:53:30;10.13;;;8.48;;
9384;SDS011;4732;49.340;10.886;2024-03-02T10:55:57;10.65;;;8.93;;
9384;SDS011;4732;49.340;10.886;2024-03-02T10:58:27;11.90;;;8.70;;
9384;SDS011;4732;49.340;10.886;2024-03-02T11:00:59;10.35;;;8.60;;
9384;SDS011;4732;49.340;10.886;2024-03-02T11:03:29;9.10;;;7.88;;
9384;SDS011;4732;49.340;10.886;2024-03-02T11:05:58;8.82;;;7.53;;
9384;SDS011;4732;49.340;10.886;2024-03-02T11:08:25;9.98;;;8.43;;
9384;SDS011;4732;49.340;10.886;2024-03-02T11:11:00;10.05;;;7.75;;
9384;SDS011;4732;49.340;10.886;2024-03-02T11:13:38;8.68;;;7.78;;
9384;SDS011;4732;49.340;10.886;2024-03-02T11:16:09;9.23;;;7.72;;
9384;SDS011;4732;49.340;10.886;2024-03-02T11:18:40;11.40;;;8.68;;
9384;SDS011;4732;49.340;10.886;2024-03-02T11:21:07;12.00;;;8.27;;
9384;SDS011;4732;49.340;10.886;2024-03-02T11:23:34;10.75;;;7.93;;
9384;SDS011;4732;49.340;10.886;2024-03-02T11:26:19;9.43;;;7.88;;
9384;SDS011;4732;49.340;10.886;2024-03-02T11:28:45;9.18;;;7.18;;
9384;SDS011;4732;49.340;10.886;2024-03-02T11:31:11;9.25;;;7.35;;
9384;SDS011;4732;49.340;10.886;2024-03-02T11:33:36;8.18;;;7.30;;
9384;SDS011;4732;49.340;10.886;2024-03-02T11:36:02;7.25;;;6.32;;
9384;SDS011;4732;49.340;10.886;2024-03-02T11:38:29;9.45;;;6.63;;
9384;SDS011;4732;49.340;10.886;2024-03-02T11:40:59;8.20;;;6.88;;
9384;SDS011;4732;49.340;10.886;2024-03-02T11:43:29;7.13;;;6.43;;
9384;SDS011;4732;49.340;10.886;2024-03-02T11:45:59;8.55;;;7.00;;
9384;SDS011;4732;49.340;10.886;2024-03-02T11:48:25;6.82;;;6.13;;
9384;SDS011;4732;49.340;10.886;2024-03-02T11:50:51;8.25;;;6.38;;
9384;SDS011;4732;49.340;10.886;2024-03-02T11:53:17;6.75;;;6.05;;
9384;SDS011;4732;49.340;10.886;2024-03-02T11:55:44;8.40;;;6.53;;
9384;SDS011;4732;49.340;10.886;2024-03-02T11:58:13;7.40;;;6.07;;
9384;SDS011;4732;49.340;10.886;2024-03-02T12:00:39;6.97;;;6.28;;
9384;SDS011;4732;49.340;10.886;2024-03-02T12:05:34;13.13;;;7.35;;
9384;SDS011;4732;49.340;10.886;2024-03-02T12:08:02;16.23;;;11.43;;
9384;SDS011;4732;49.340;10.886;2024-03-02T12:10:30;25.95;;;19.10;;
9384;SDS011;4732;49.340;10.886;2024-03-02T12:15:23;15.00;;;10.90;;
9384;SDS011;4732;49.340;10.886;2024-03-02T12:17:54;10.60;;;8.73;;
9384;SDS011;4732;49.340;10.886;2024-03-02T12:20:20;12.43;;;9.82;;
9384;SDS011;4732;49.340;10.886;2024-03-02T12:22:45;12.93;;;9.15;;
9384;SDS011;4732;49.340;10.886;2024-03-02T12:25:11;13.23;;;10.50;;
9384;SDS011;4732;49.340;10.886;2024-03-02T12:27:38;15.13;;;10.10;;
9384;SDS011;4732;49.340;10.886;2024-03-02T12:30:05;10.63;;;9.00;;
9384;SDS011;4732;49.340;10.886;2024-03-02T12:32:33;17.58;;;13.13;;
9384;SDS011;4732;49.340;10.886;2024-03-02T12:34:59;17.70;;;14.10;;
9384;SDS011;4732;49.340;10.886;2024-03-02T12:37:25;16.70;;;14.02;;
9384;SDS011;4732;49.340;10.886;2024-03-02T12:39:52;18.33;;;13.30;;
9384;SDS011;4732;49.340;10.886;2024-03-02T12:42:18;14.82;;;12.73;;
9384;SDS011;4732;49.340;10.886;2024-03-02T12:44:43;16.63;;;13.00;;
9384;SDS011;4732;49.340;10.886;2024-03-02T12:47:09;17.48;;;13.73;;
9384;SDS011;4732;49.340;10.886;2024-03-02T12:49:34;14.82;;;12.43;;
9384;SDS011;4732;49.340;10.886;2024-03-02T12:52:00;15.07;;;12.15;;
9384;SDS011;4732;49.340;10.886;2024-03-02T12:54:27;17.15;;;13.40;;
9384;SDS011;4732;49.340;10.886;2024-03-02T12:56:53;16.80;;;13.50;;
9384;SDS011;4732;49.340;10.886;2024-03-02T12:59:19;20.13;;;14.43;;
9384;SDS011;4732;49.340;10.886;2024-03-02T13:01:52;17.13;;;13.23;;
9384;SDS011;4732;49.340;10.886;2024-03-02T13:04:23;21.38;;;14.40;;
9384;SDS011;4732;49.340;10.886;2024-03-02T13:06:49;19.25;;;14.68;;
9384;SDS011;4732;49.340;10.886;2024-03-02T13:09:16;18.10;;;14.23;;
9384;SDS011;4732;49.340;10.886;2024-03-02T13:11:42;19.40;;;15.18;;
9384;SDS011;4732;49.340;10.886;2024-03-02T13:14:08;22.00;;;15.85;;
9384;SDS011;4732;49.340;10.886;2024-03-02T13:16:41;20.08;;;15.85;;
9384;SDS011;4732;49.340;10.886;2024-03-02T13:19:08;20.90;;;15.75;;
9384;SDS011;4732;49.340;10.886;2024-03-02T13:21:34;22.23;;;16.00;;
9384;SDS011;4732;49.340;10.886;2024-03-02T13:23:59;18.52;;;14.52;;
9384;SDS011;4732;49.340;10.886;2024-03-02T13:26:26;19.98;;;15.45;;
9384;SDS011;4732;49.340;10.886;2024-03-02T13:28:51;19.60;;;15.32;;
9384;SDS011;4732;49.340;10.886;2024-03-02T13:31:17;21.73;;;15.88;;
9384;SDS011;4732;49.340;10.886;2024-03-02T13:33:42;19.50;;;15.27;;
9384;SDS011;4732;49.340;10.886;2024-03-02T13:36:08;19.55;;;15.05;;
9384;SDS011;4732;49.340;10.886;2024-03-02T13:38:33;21.02;;;15.07;;
9384;SDS011;4732;49.340;10.886;2024-03-02T13:40:59;19.23;;;14.07;;
9384;SDS011;4732;49.340;10.886;2024-03-02T13:43:26;17.00;;;14.13;;
9384;SDS011;4732;49.340;10.886;2024-03-02T13:45:52;17.67;;;13.70;;
9384;SDS011;4732;49.340;10.886;2024-03-02T13:48:18;20.98;;;13.88;;
9384;SDS011;4732;49.340;10.886;2024-03-02T13:50:44;18.42;;;13.48;;
9384;SDS011;4732;49.340;10.886;2024-03-02T13:53:11;17.75;;;13.15;;
9384;SDS011;4732;49.340;10.886;2024-03-02T13:55:37;18.27;;;13.57;;
9384;SDS011;4732;49.340;10.886;2024-03-02T13:58:02;16.75;;;12.93;;
9384;SDS011;4732;49.340;10.886;2024-03-02T14:00:29;16.52;;;13.00;;
9384;SDS011;4732;49.340;10.886;2024-03-02T14:02:54;18.02;;;13.43;;
9384;SDS011;4732;49.340;10.886;2024-03-02T14:05:20;18.02;;;14.00;;
9384;SDS011;4732;49.340;10.886;2024-03-02T14:07:46;18.95;;;13.77;;
9384;SDS011;4732;49.340;10.886;2024-03-02T14:10:11;18.02;;;13.93;;
9384;SDS011;4732;49.340;10.886;2024-03-02T14:12:37;18.45;;;14.43;;
9384;SDS011;4732;49.340;10.886;2024-03-02T14:15:03;20.00;;;14.93;;
9384;SDS011;4732;49.340;10.886;2024-03-02T14:17:29;17.65;;;14.15;;
9384;SDS011;4732;49.340;10.886;2024-03-02T14:19:56;23.98;;;14.77;;
9384;SDS011;4732;49.340;10.886;2024-03-02T14:22:24;19.35;;;13.38;;
9384;SDS011;4732;49.340;10.886;2024-03-02T14:24:49;19.45;;;14.35;;
9384;SDS011;4732;49.340;10.886;2024-03-02T14:27:15;20.98;;;15.15;;
9384;SDS011;4732;49.340;10.886;2024-03-02T14:29:42;19.45;;;15.13;;
9384;SDS011;4732;49.340;10.886;2024-03-02T14:32:08;20.30;;;14.50;;
9384;SDS011;4732;49.340;10.886;2024-03-02T14:34:33;19.35;;;14.63;;
9384;SDS011;4732;49.340;10.886;2024-03-02T14:36:59;19.00;;;14.52;;
9384;SDS011;4732;49.340;10.886;2024-03-02T14:39:25;19.98;;;14.77;;
9384;SDS011;4732;49.340;10.886;2024-03-02T14:41:51;20.77;;;15.18;;
9384;SDS011;4732;49.340;10.886;2024-03-02T14:44:17;18.17;;;13.93;;
9384;SDS011;4732;49.340;10.886;2024-03-02T14:46:42;20.23;;;13.75;;
9384;SDS011;4732;49.340;10.886;2024-03-02T14:49:08;17.45;;;11.95;;
9384;SDS011;4732;49.340;10.886;2024-03-02T14:51:35;15.45;;;11.77;;
9384;SDS011;4732;49.340;10.886;2024-03-02T14:54:01;16.35;;;12.75;;
9384;SDS011;4732;49.340;10.886;2024-03-02T14:56:28;17.67;;;13.43;;
9384;SDS011;4732;49.340;10.886;2024-03-02T14:58:53;18.27;;;13.77;;
9384;SDS011;4732;49.340;10.886;2024-03-02T15:01:19;19.70;;;14.20;;
9384;SDS011;4732;49.340;10.886;2024-03-02T15:03:47;17.40;;;13.55;;
9384;SDS011;4732;49.340;10.886;2024-03-02T15:06:13;21.58;;;14.13;;
9384;SDS011;4732;49.340;10.886;2024-03-02T15:08:39;17.42;;;13.20;;
9384;SDS011;4732;49.340;10.886;2024-03-02T15:11:06;19.50;;;13.77;;
9384;SDS011;4732;49.340;10.886;2024-03-02T15:13:32;18.92;;;14.07;;
9384;SDS011;4732;49.340;10.886;2024-03-02T15:15:59;18.80;;;14.32;;
9384;SDS011;4732;49.340;10.886;2024-03-02T15:18:25;18.42;;;14.38;;
9384;SDS011;4732;49.340;10.886;2024-03-02T15:20:50;17.60;;;13.38;;
9384;SDS011;4732;49.340;10.886;2024-03-02T15:23:16;18.77;;;13.27;;
9384;SDS011;4732;49.340;10.886;2024-03-02T15:25:41;16.80;;;12.45;;
9384;SDS011;4732;49.340;10.886;2024-03-02T15:28:07;17.60;;;13.25;;
9384;SDS011;4732;49.340;10.886;2024-03-02T15:30:33;18.45;;;13.95;;
9384;SDS011;4732;49.340;10.886;2024-03-02T15:32:58;21.38;;;14.45;;
9384;SDS011;4732;49.340;10.886;2024-03-02T15:35:24;21.58;;;16.15;;
9384;SDS011;4732;49.340;10.886;2024-03-02T15:37:49;22.95;;;15.88;;
9384;SDS011;4732;49.340;10.886;2024-03-02T15:40:15;16.50;;;13.32;;
9384;SDS011;4732;49.340;10.886;2024-03-02T15:42:41;17.55;;;12.48;;
9384;SDS011;4732;49.340;10.886;2024-03-02T15:45:06;20.40;;;13.50;;
9384;SDS011;4732;49.340;10.886;2024-03-02T15:47:32;22.58;;;15.43;;
9384;SDS011;4732;49.340;10.886;2024-03-02T15:49:58;22.55;;;16.38;;
9384;SDS011;4732;49.340;10.886;2024-03-02T15:52:24;22.30;;;16.17;;
9384;SDS011;4732;49.340;10.886;2024-03-02T15:54:49;21.60;;;14.25;;
9384;SDS011;4732;49.340;10.886;2024-03-02T15:57:15;17.00;;;12.90;;
9384;SDS011;4732;49.340;10.886;2024-03-02T15:59:42;23.05;;;13.43;;
9384;SDS011;4732;49.340;10.886;2024-03-02T16:02:08;17.98;;;12.98;;
9384;SDS011;4732;49.340;10.886;2024-03-02T16:04:34;18.67;;;12.20;;
9384;SDS011;4732;49.340;10.886;2024-03-02T16:07:00;25.17;;;15.40;;
9384;SDS011;4732;49.340;10.886;2024-03-02T16:09:25;27.00;;;16.05;;
9384;SDS011;4732;49.340;10.886;2024-03-02T16:11:51;21.35;;;14.88;;
9384;SDS011;4732;49.340;10.886;2024-03-02T16:14:17;22.80;;;15.40;;
9384;SDS011;4732;49.340;10.886;2024-03-02T16:16:42;23.52;;;16.20;;
9384;SDS011;4732;49.340;10.886;2024-03-02T16:19:09;28.05;;;18.30;;
9384;SDS011;4732;49.340;10.886;2024-03-02T16:21:35;18.90;;;13.38;;
9384;SDS011;4732;49.340;10.886;2024-03-02T16:24:00;18.85;;;13.27;;
9384;SDS011;4732;49.340;10.886;2024-03-02T16:26:26;18.83;;;12.85;;
9384;SDS011;4732;49.340;10.886;2024-03-02T16:28:51;22.02;;;12.40;;
9384;SDS011;4732;49.340;10.886;2024-03-02T16:31:17;17.13;;;11.98;;
9384;SDS011;4732;49.340;10.886;2024-03-02T16:33:43;21.38;;;13.00;;
9384;SDS011;4732;49.340;10.886;2024-03-02T16:36:09;34.67;;;16.55;;
9384;SDS011;4732;49.340;10.886;2024-03-02T16:38:35;24.13;;;13.55;;
9384;SDS011;4732;49.340;10.886;2024-03-02T16:41:01;16.92;;;11.98;;
9384;SDS011;4732;49.340;10.886;2024-03-02T16:43:27;18.45;;;12.20;;
9384;SDS011;4732;49.340;10.886;2024-03-02T16:45:52;18.52;;;12.52;;
9384;SDS011;4732;49.340;10.886;2024-03-02T16:48:18;23.10;;;13.73;;
9384;SDS011;4732;49.340;10.886;2024-03-02T16:50:43;19.25;;;12.75;;
9384;SDS011;4732;49.340;10.886;2024-03-02T16:53:09;20.25;;;14.32;;
9384;SDS011;4732;49.340;10.886;2024-03-02T16:55:35;19.55;;;12.98;;
9384;SDS011;4732;49.340;10.886;2024-03-02T16:58:00;18.35;;;12.20;;
9384;SDS011;4732;49.340;10.886;2024-03-02T17:00:26;23.15;;;13.38;;
9384;SDS011;4732;49.340;10.886;2024-03-02T17:02:51;17.45;;;12.60;;
9384;SDS011;4732;49.340;10.886;2024-03-02T17:05:19;20.20;;;13.55;;
9384;SDS011;4732;49.340;10.886;2024-03-02T17:07:47;19.38;;;13.13;;
9384;SDS011;4732;49.340;10.886;2024-03-02T17:10:12;22.55;;;13.35;;
9384;SDS011;4732;49.340;10.886;2024-03-02T17:12:38;18.50;;;12.55;;
9384;SDS011;4732;49.340;10.886;2024-03-02T17:15:04;19.33;;;13.25;;
9384;SDS011;4732;49.340;10.886;2024-03-02T17:17:30;20.95;;;13.07;;
9384;SDS011;4732;49.340;10.886;2024-03-02T17:19:56;19.80;;;13.60;;
9384;SDS011;4732;49.340;10.886;2024-03-02T17:22:21;20.88;;;13.55;;
9384;SDS011;4732;49.340;10.886;2024-03-02T17:24:48;20.83;;;14.00;;
9384;SDS011;4732;49.340;10.886;2024-03-02T17:27:14;21.42;;;13.45;;
9384;SDS011;4732;49.340;10.886;2024-03-02T17:29:39;22.17;;;15.00;;
9384;SDS011;4732;49.340;10.886;2024-03-02T17:32:05;23.40;;;15.38;;
9384;SDS011;4732;49.340;10.886;2024-03-02T17:34:30;22.40;;;16.08;;
9384;SDS011;4732;49.340;10.886;2024-03-02T17:36:56;22.55;;;15.70;;
9384;SDS011;4732;49.340;10.886;2024-03-02T17:39:22;32.70;;;19.17;;
9384;SDS011;4732;49.340;10.886;2024-03-02T17:41:47;31.27;;;20.30;;
9384;SDS011;4732;49.340;10.886;2024-03-02T17:44:13;26.50;;;18.73;;
9384;SDS011;4732;49.340;10.886;2024-03-02T17:46:38;26.40;;;18.58;;
9384;SDS011;4732;49.340;10.886;2024-03-02T17:49:04;29.52;;;19.45;;
9384;SDS011;4732;49.340;10.886;2024-03-02T17:51:29;26.45;;;18.50;;
9384;SDS011;4732;49.340;10.886;2024-03-02T17:53:55;24.67;;;17.00;;
9384;SDS011;4732;49.340;10.886;2024-03-02T17:56:20;22.30;;;15.30;;
9384;SDS011;4732;49.340;10.886;2024-03-02T17:58:46;20.23;;;14.73;;
9384;SDS011;4732;49.340;10.886;2024-03-02T18:01:11;21.17;;;14.50;;
9384;SDS011;4732;49.340;10.886;2024-03-02T18:03:37;21.58;;;15.35;;
9384;SDS011;4732;49.340;10.886;2024-03-02T18:06:03;17.67;;;13.82;;
9384;SDS011;4732;49.340;10.886;2024-03-02T18:08:29;19.05;;;14.52;;
9384;SDS011;4732;49.340;10.886;2024-03-02T18:10:55;18.88;;;13.30;;
9384;SDS011;4732;49.340;10.886;2024-03-02T18:13:21;21.08;;;14.95;;
9384;SDS011;4732;49.340;10.886;2024-03-02T18:15:46;23.65;;;14.40;;
9384;SDS011;4732;49.340;10.886;2024-03-02T18:18:12;18.48;;;13.48;;
9384;SDS011;4732;49.340;10.886;2024-03-02T18:20:37;18.08;;;12.93;;
9384;SDS011;4732;49.340;10.886;2024-03-02T18:23:03;17.80;;;13.35;;
9384;SDS011;4732;49.340;10.886;2024-03-02T18:25:30;20.25;;;14.00;;
9384;SDS011;4732;49.340;10.886;2024-03-02T18:27:55;19.42;;;14.25;;
9384;SDS011;4732;49.340;10.886;2024-03-02T18:30:21;21.77;;;14.90;;
9384;SDS011;4732;49.340;10.886;2024-03-02T18:32:46;20.98;;;14.98;;
9384;SDS011;4732;49.340;10.886;2024-03-02T18:35:12;20.50;;;14.17;;
9384;SDS011;4732;49.340;10.886;2024-03-02T18:37:37;20.42;;;14.00;;
9384;SDS011;4732;49.340;10.886;2024-03-02T18:40:04;21.23;;;15.38;;
9384;SDS011;4732;49.340;10.886;2024-03-02T18:42:31;23.45;;;14.57;;
9384;SDS011;4732;49.340;10.886;2024-03-02T18:44:57;20.33;;;14.48;;
9384;SDS011;4732;49.340;10.886;2024-03-02T18:47:23;20.15;;;14.57;;
9384;SDS011;4732;49.340;10.886;2024-03-02T18:49:49;19.07;;;14.00;;